sensor_id;sensor_type;location;lat;lon;timestamp;P1;durP1;ratioP1;P2;durP2;ratioP2
6834;SDS011;3455;42.150;24.734;2023-04-24T00:01:08;6.60;;;6.10;;
6834;SDS011;3455;42.150;24.734;2023-04-24T00:03:35;7.03;;;6.53;;
6834;SDS011;3455;42.150;24.734;2023-04-24T00:06:05;6.33;;;5.73;;
6834;SDS011;3455;42.150;24.734;2023-04-24T00:08:33;8.33;;;6.50;;
6834;SDS011;3455;42.150;24.734;2023-04-24T00:10:59;10.27;;;6.47;;
6834;SDS011;3455;42.150;24.734;2023-04-24T00:13:26;6.80;;;6.10;;
6834;SDS011;3455;42.150;24.734;2023-04-24T00:15:54;9.50;;;6.13;;
6834;SDS011;3455;42.150;24.734;2023-04-24T00:18:21;7.50;;;5.73;;
6834;SDS011;3455;42.150;24.734;2023-04-24T00:20:48;7.43;;;6.07;;
6834;SDS011;3455;42.150;24.734;2023-04-24T00:23:16;6.97;;;6.47;;
6834;SDS011;3455;42.150;24.734;2023-04-24T00:25:42;10.73;;;6.40;;
6834;SDS011;3455;42.150;24.734;2023-04-24T00:28:09;9.07;;;7.10;;
6834;SDS011;3455;42.150;24.734;2023-04-24T00:30:36;8.13;;;7.10;;
6834;SDS011;3455;42.150;24.734;2023-04-24T00:33:03;9.13;;;6.33;;
6834;SDS011;3455;42.150;24.734;2023-04-24T00:35:29;7.57;;;6.07;;
6834;SDS011;3455;42.150;24.734;2023-04-24T00:37:56;15.37;;;6.60;;
6834;SDS011;3455;42.150;24.734;2023-04-24T00:40:24;8.43;;;6.63;;
6834;SDS011;3455;42.150;24.734;2023-04-24T00:42:51;16.83;;;8.50;;
6834;SDS011;3455;42.150;24.734;2023-04-24T00:45:18;9.87;;;7.20;;
6834;SDS011;3455;42.150;24.734;2023-04-24T00:47:45;12.73;;;7.30;;
6834;SDS011;3455;42.150;24.734;2023-04-24T00:50:14;10.10;;;7.60;;
6834;SDS011;3455;42.150;24.734;2023-04-24T00:52:41;9.03;;;8.10;;
6834;SDS011;3455;42.150;24.734;2023-04-24T00:55:08;8.33;;;7.57;;
6834;SDS011;3455;42.150;24.734;2023-04-24T00:57:36;8.53;;;7.87;;
6834;SDS011;3455;42.150;24.734;2023-04-24T01:00:04;8.60;;;7.80;;
6834;SDS011;3455;42.150;24.734;2023-04-24T01:02:37;10.53;;;8.00;;
6834;SDS011;3455;42.150;24.734;2023-04-24T01:05:09;7.70;;;7.27;;
6834;SDS011;3455;42.150;24.734;2023-04-24T01:07:36;9.73;;;8.73;;
6834;SDS011;3455;42.150;24.734;2023-04-24T01:10:04;10.60;;;8.33;;
6834;SDS011;3455;42.150;24.734;2023-04-24T01:12:33;8.33;;;7.60;;
6834;SDS011;3455;42.150;24.734;2023-04-24T01:15:01;9.53;;;8.67;;
6834;SDS011;3455;42.150;24.734;2023-04-24T01:17:28;9.17;;;8.47;;
6834;SDS011;3455;42.150;24.734;2023-04-24T01:19:56;9.70;;;8.23;;
6834;SDS011;3455;42.150;24.734;2023-04-24T01:22:25;9.80;;;8.80;;
6834;SDS011;3455;42.150;24.734;2023-04-24T01:24:52;9.50;;;8.70;;
6834;SDS011;3455;42.150;24.734;2023-04-24T01:27:19;8.90;;;8.30;;
6834;SDS011;3455;42.150;24.734;2023-04-24T01:29:46;10.10;;;9.03;;
6834;SDS011;3455;42.150;24.734;2023-04-24T01:32:14;9.33;;;8.73;;
6834;SDS011;3455;42.150;24.734;2023-04-24T01:34:41;9.30;;;8.50;;
6834;SDS011;3455;42.150;24.734;2023-04-24T01:37:09;9.13;;;8.30;;
6834;SDS011;3455;42.150;24.734;2023-04-24T01:39:37;10.40;;;9.33;;
6834;SDS011;3455;42.150;24.734;2023-04-24T01:42:04;12.97;;;9.43;;
6834;SDS011;3455;42.150;24.734;2023-04-24T01:44:31;10.90;;;9.73;;
6834;SDS011;3455;42.150;24.734;2023-04-24T01:47:00;13.67;;;10.17;;
6834;SDS011;3455;42.150;24.734;2023-04-24T01:49:27;13.43;;;9.70;;
6834;SDS011;3455;42.150;24.734;2023-04-24T01:51:54;11.40;;;10.47;;
6834;SDS011;3455;42.150;24.734;2023-04-24T01:54:20;14.00;;;11.17;;
6834;SDS011;3455;42.150;24.734;2023-04-24T01:56:48;12.80;;;10.13;;
6834;SDS011;3455;42.150;24.734;2023-04-24T01:59:15;11.43;;;10.33;;
6834;SDS011;3455;42.150;24.734;2023-04-24T02:01:43;11.13;;;10.03;;
6834;SDS011;3455;42.150;24.734;2023-04-24T02:04:10;11.97;;;10.77;;
6834;SDS011;3455;42.150;24.734;2023-04-24T02:06:36;14.53;;;9.63;;
6834;SDS011;3455;42.150;24.734;2023-04-24T02:09:03;10.93;;;9.80;;
6834;SDS011;3455;42.150;24.734;2023-04-24T02:11:30;10.63;;;9.83;;
6834;SDS011;3455;42.150;24.734;2023-04-24T02:13:58;9.97;;;9.17;;
6834;SDS011;3455;42.150;24.734;2023-04-24T02:16:25;9.77;;;8.80;;
6834;SDS011;3455;42.150;24.734;2023-04-24T02:18:51;10.00;;;9.00;;
6834;SDS011;3455;42.150;24.734;2023-04-24T02:21:18;10.47;;;9.57;;
6834;SDS011;3455;42.150;24.734;2023-04-24T02:23:45;10.47;;;9.77;;
6834;SDS011;3455;42.150;24.734;2023-04-24T02:26:11;11.23;;;9.60;;
6834;SDS011;3455;42.150;24.734;2023-04-24T02:28:38;9.87;;;9.10;;
6834;SDS011;3455;42.150;24.734;2023-04-24T02:31:06;9.70;;;8.90;;
6834;SDS011;3455;42.150;24.734;2023-04-24T02:33:33;13.13;;;9.00;;
6834;SDS011;3455;42.150;24.734;2023-04-24T02:36:00;9.60;;;8.80;;
6834;SDS011;3455;42.150;24.734;2023-04-24T02:38:27;9.60;;;8.83;;
6834;SDS011;3455;42.150;24.734;2023-04-24T02:40:54;8.97;;;8.13;;
6834;SDS011;3455;42.150;24.734;2023-04-24T02:43:21;9.77;;;9.07;;
6834;SDS011;3455;42.150;24.734;2023-04-24T02:45:48;9.93;;;8.87;;
6834;SDS011;3455;42.150;24.734;2023-04-24T02:48:16;9.73;;;8.73;;
6834;SDS011;3455;42.150;24.734;2023-04-24T02:50:43;9.80;;;8.97;;
6834;SDS011;3455;42.150;24.734;2023-04-24T02:53:10;13.60;;;9.17;;
6834;SDS011;3455;42.150;24.734;2023-04-24T02:55:37;9.17;;;8.57;;
6834;SDS011;3455;42.150;24.734;2023-04-24T02:58:04;9.40;;;8.63;;
6834;SDS011;3455;42.150;24.734;2023-04-24T03:00:31;9.97;;;8.20;;
6834;SDS011;3455;42.150;24.734;2023-04-24T03:02:58;9.83;;;8.30;;
6834;SDS011;3455;42.150;24.734;2023-04-24T03:05:26;10.00;;;9.00;;
6834;SDS011;3455;42.150;24.734;2023-04-24T03:07:53;9.90;;;8.93;;
6834;SDS011;3455;42.150;24.734;2023-04-24T03:10:19;10.43;;;9.30;;
6834;SDS011;3455;42.150;24.734;2023-04-24T03:12:47;9.67;;;8.87;;
6834;SDS011;3455;42.150;24.734;2023-04-24T03:15:15;10.03;;;9.23;;
6834;SDS011;3455;42.150;24.734;2023-04-24T03:17:42;8.87;;;8.20;;
6834;SDS011;3455;42.150;24.734;2023-04-24T03:20:08;10.60;;;8.70;;
6834;SDS011;3455;42.150;24.734;2023-04-24T03:22:37;10.07;;;9.07;;
6834;SDS011;3455;42.150;24.734;2023-04-24T03:25:04;9.80;;;8.90;;
6834;SDS011;3455;42.150;24.734;2023-04-24T03:27:33;9.90;;;9.00;;
6834;SDS011;3455;42.150;24.734;2023-04-24T03:30:00;10.33;;;9.27;;
6834;SDS011;3455;42.150;24.734;2023-04-24T03:32:27;13.07;;;9.43;;
6834;SDS011;3455;42.150;24.734;2023-04-24T03:34:54;11.63;;;9.80;;
6834;SDS011;3455;42.150;24.734;2023-04-24T03:37:20;11.10;;;9.80;;
6834;SDS011;3455;42.150;24.734;2023-04-24T03:39:48;14.37;;;10.17;;
6834;SDS011;3455;42.150;24.734;2023-04-24T03:42:15;12.97;;;10.37;;
6834;SDS011;3455;42.150;24.734;2023-04-24T03:44:42;13.03;;;11.43;;
6834;SDS011;3455;42.150;24.734;2023-04-24T03:47:09;15.63;;;12.10;;
6834;SDS011;3455;42.150;24.734;2023-04-24T03:49:35;12.47;;;11.50;;
6834;SDS011;3455;42.150;24.734;2023-04-24T03:52:02;16.07;;;12.07;;
6834;SDS011;3455;42.150;24.734;2023-04-24T03:54:29;12.67;;;11.30;;
6834;SDS011;3455;42.150;24.734;2023-04-24T03:56:57;17.70;;;14.37;;
6834;SDS011;3455;42.150;24.734;2023-04-24T03:59:24;30.87;;;16.43;;
6834;SDS011;3455;42.150;24.734;2023-04-24T04:01:50;19.33;;;12.83;;
6834;SDS011;3455;42.150;24.734;2023-04-24T04:04:17;18.53;;;12.90;;
6834;SDS011;3455;42.150;24.734;2023-04-24T04:06:44;19.47;;;11.90;;
6834;SDS011;3455;42.150;24.734;2023-04-24T04:09:11;14.53;;;11.70;;
6834;SDS011;3455;42.150;24.734;2023-04-24T04:11:38;18.37;;;12.53;;
6834;SDS011;3455;42.150;24.734;2023-04-24T04:14:06;21.60;;;12.57;;
6834;SDS011;3455;42.150;24.734;2023-04-24T04:16:33;18.67;;;13.40;;
6834;SDS011;3455;42.150;24.734;2023-04-24T04:19:01;20.60;;;13.37;;
6834;SDS011;3455;42.150;24.734;2023-04-24T04:21:28;14.23;;;12.63;;
6834;SDS011;3455;42.150;24.734;2023-04-24T04:23:56;15.13;;;12.57;;
6834;SDS011;3455;42.150;24.734;2023-04-24T04:26:23;13.37;;;12.10;;
6834;SDS011;3455;42.150;24.734;2023-04-24T04:28:50;16.27;;;13.17;;
6834;SDS011;3455;42.150;24.734;2023-04-24T04:31:18;14.43;;;12.37;;
6834;SDS011;3455;42.150;24.734;2023-04-24T04:33:46;18.00;;;12.77;;
6834;SDS011;3455;42.150;24.734;2023-04-24T04:36:12;15.63;;;13.40;;
6834;SDS011;3455;42.150;24.734;2023-04-24T04:38:39;21.67;;;14.13;;
6834;SDS011;3455;42.150;24.734;2023-04-24T04:41:08;21.50;;;15.10;;
6834;SDS011;3455;42.150;24.734;2023-04-24T04:43:34;19.13;;;14.10;;
6834;SDS011;3455;42.150;24.734;2023-04-24T04:46:01;17.30;;;14.63;;
6834;SDS011;3455;42.150;24.734;2023-04-24T04:48:30;13.83;;;11.37;;
6834;SDS011;3455;42.150;24.734;2023-04-24T04:50:56;13.00;;;10.93;;
6834;SDS011;3455;42.150;24.734;2023-04-24T04:53:23;23.00;;;11.93;;
6834;SDS011;3455;42.150;24.734;2023-04-24T04:55:50;14.97;;;11.67;;
6834;SDS011;3455;42.150;24.734;2023-04-24T04:58:17;12.53;;;11.13;;
6834;SDS011;3455;42.150;24.734;2023-04-24T05:00:44;13.17;;;11.83;;
6834;SDS011;3455;42.150;24.734;2023-04-24T05:03:11;14.40;;;9.70;;
6834;SDS011;3455;42.150;24.734;2023-04-24T05:05:39;10.00;;;9.20;;
6834;SDS011;3455;42.150;24.734;2023-04-24T05:08:06;12.30;;;10.80;;
6834;SDS011;3455;42.150;24.734;2023-04-24T05:10:33;13.93;;;10.33;;
6834;SDS011;3455;42.150;24.734;2023-04-24T05:13:01;11.80;;;10.07;;
6834;SDS011;3455;42.150;24.734;2023-04-24T05:15:28;14.10;;;9.93;;
6834;SDS011;3455;42.150;24.734;2023-04-24T05:17:55;9.63;;;8.70;;
6834;SDS011;3455;42.150;24.734;2023-04-24T05:20:23;10.63;;;9.43;;
6834;SDS011;3455;42.150;24.734;2023-04-24T05:22:51;13.77;;;9.33;;
6834;SDS011;3455;42.150;24.734;2023-04-24T05:25:18;11.73;;;9.30;;
6834;SDS011;3455;42.150;24.734;2023-04-24T05:27:45;16.10;;;9.20;;
6834;SDS011;3455;42.150;24.734;2023-04-24T05:30:12;14.33;;;9.33;;
6834;SDS011;3455;42.150;24.734;2023-04-24T05:32:40;9.23;;;8.43;;
6834;SDS011;3455;42.150;24.734;2023-04-24T05:35:07;10.17;;;8.77;;
6834;SDS011;3455;42.150;24.734;2023-04-24T05:37:34;9.17;;;8.33;;
6834;SDS011;3455;42.150;24.734;2023-04-24T05:40:02;11.43;;;8.43;;
6834;SDS011;3455;42.150;24.734;2023-04-24T05:42:30;11.87;;;7.30;;
6834;SDS011;3455;42.150;24.734;2023-04-24T05:44:57;8.73;;;7.33;;
6834;SDS011;3455;42.150;24.734;2023-04-24T05:47:24;8.38;;;6.60;;
6834;SDS011;3455;42.150;24.734;2023-04-24T05:49:51;10.05;;;7.13;;
6834;SDS011;3455;42.150;24.734;2023-04-24T05:52:18;17.03;;;8.07;;
6834;SDS011;3455;42.150;24.734;2023-04-24T05:54:45;14.83;;;7.60;;
6834;SDS011;3455;42.150;24.734;2023-04-24T05:57:13;8.73;;;7.20;;
6834;SDS011;3455;42.150;24.734;2023-04-24T05:59:40;14.73;;;8.13;;
6834;SDS011;3455;42.150;24.734;2023-04-24T06:02:07;13.87;;;8.87;;
6834;SDS011;3455;42.150;24.734;2023-04-24T06:04:35;26.60;;;16.03;;
6834;SDS011;3455;42.150;24.734;2023-04-24T06:07:02;17.15;;;11.55;;
6834;SDS011;3455;42.150;24.734;2023-04-24T06:09:29;12.40;;;9.43;;
6834;SDS011;3455;42.150;24.734;2023-04-24T06:11:56;11.47;;;8.87;;
6834;SDS011;3455;42.150;24.734;2023-04-24T06:14:24;13.27;;;7.55;;
6834;SDS011;3455;42.150;24.734;2023-04-24T06:16:51;7.85;;;6.82;;
6834;SDS011;3455;42.150;24.734;2023-04-24T06:19:18;30.80;;;10.13;;
6834;SDS011;3455;42.150;24.734;2023-04-24T06:21:45;8.05;;;6.47;;
6834;SDS011;3455;42.150;24.734;2023-04-24T06:24:13;10.60;;;6.85;;
6834;SDS011;3455;42.150;24.734;2023-04-24T06:26:41;8.82;;;6.05;;
6834;SDS011;3455;42.150;24.734;2023-04-24T06:29:08;13.65;;;6.00;;
6834;SDS011;3455;42.150;24.734;2023-04-24T06:31:36;7.45;;;6.18;;
6834;SDS011;3455;42.150;24.734;2023-04-24T06:34:03;14.15;;;7.13;;
6834;SDS011;3455;42.150;24.734;2023-04-24T06:36:30;7.55;;;6.90;;
6834;SDS011;3455;42.150;24.734;2023-04-24T06:38:57;16.33;;;6.60;;
6834;SDS011;3455;42.150;24.734;2023-04-24T06:41:24;17.08;;;6.95;;
6834;SDS011;3455;42.150;24.734;2023-04-24T06:43:51;21.35;;;7.70;;
6834;SDS011;3455;42.150;24.734;2023-04-24T06:46:18;11.52;;;6.68;;
6834;SDS011;3455;42.150;24.734;2023-04-24T06:48:48;7.15;;;6.55;;
6834;SDS011;3455;42.150;24.734;2023-04-24T06:51:15;10.73;;;7.05;;
6834;SDS011;3455;42.150;24.734;2023-04-24T06:53:43;7.38;;;6.75;;
6834;SDS011;3455;42.150;24.734;2023-04-24T06:56:10;7.38;;;6.13;;
6834;SDS011;3455;42.150;24.734;2023-04-24T06:58:36;7.50;;;5.55;;
6834;SDS011;3455;42.150;24.734;2023-04-24T07:01:03;8.73;;;5.95;;
6834;SDS011;3455;42.150;24.734;2023-04-24T07:03:30;7.13;;;6.43;;
6834;SDS011;3455;42.150;24.734;2023-04-24T07:05:58;9.30;;;6.15;;
6834;SDS011;3455;42.150;24.734;2023-04-24T07:08:25;6.38;;;5.82;;
6834;SDS011;3455;42.150;24.734;2023-04-24T07:10:52;6.07;;;5.35;;
6834;SDS011;3455;42.150;24.734;2023-04-24T07:13:18;7.13;;;5.70;;
6834;SDS011;3455;42.150;24.734;2023-04-24T07:15:45;5.70;;;5.05;;
6834;SDS011;3455;42.150;24.734;2023-04-24T07:18:14;6.00;;;5.35;;
6834;SDS011;3455;42.150;24.734;2023-04-24T07:20:41;9.43;;;5.75;;
6834;SDS011;3455;42.150;24.734;2023-04-24T07:23:09;7.75;;;5.95;;
6834;SDS011;3455;42.150;24.734;2023-04-24T07:25:35;8.95;;;6.07;;
6834;SDS011;3455;42.150;24.734;2023-04-24T07:28:03;5.93;;;5.43;;
6834;SDS011;3455;42.150;24.734;2023-04-24T07:30:30;8.38;;;5.28;;
6834;SDS011;3455;42.150;24.734;2023-04-24T07:32:58;6.25;;;5.15;;
6834;SDS011;3455;42.150;24.734;2023-04-24T07:35:25;5.95;;;5.45;;
6834;SDS011;3455;42.150;24.734;2023-04-24T07:37:52;5.95;;;5.53;;
6834;SDS011;3455;42.150;24.734;2023-04-24T07:40:21;5.70;;;5.40;;
6834;SDS011;3455;42.150;24.734;2023-04-24T07:42:48;7.32;;;6.65;;
6834;SDS011;3455;42.150;24.734;2023-04-24T07:45:15;6.70;;;5.90;;
6834;SDS011;3455;42.150;24.734;2023-04-24T07:47:41;8.02;;;5.65;;
6834;SDS011;3455;42.150;24.734;2023-04-24T07:50:10;6.75;;;5.88;;
6834;SDS011;3455;42.150;24.734;2023-04-24T07:52:38;5.75;;;5.22;;
6834;SDS011;3455;42.150;24.734;2023-04-24T07:55:05;7.57;;;5.43;;
6834;SDS011;3455;42.150;24.734;2023-04-24T07:57:34;11.43;;;5.47;;
6834;SDS011;3455;42.150;24.734;2023-04-24T08:00:00;7.63;;;6.85;;
6834;SDS011;3455;42.150;24.734;2023-04-24T08:02:28;11.98;;;5.65;;
6834;SDS011;3455;42.150;24.734;2023-04-24T08:04:55;7.32;;;6.70;;
6834;SDS011;3455;42.150;24.734;2023-04-24T08:07:22;9.00;;;6.18;;
6834;SDS011;3455;42.150;24.734;2023-04-24T08:09:49;6.50;;;6.00;;
6834;SDS011;3455;42.150;24.734;2023-04-24T08:12:16;7.40;;;6.50;;
6834;SDS011;3455;42.150;24.734;2023-04-24T08:14:44;5.95;;;5.47;;
6834;SDS011;3455;42.150;24.734;2023-04-24T08:17:11;8.45;;;6.10;;
6834;SDS011;3455;42.150;24.734;2023-04-24T08:19:39;7.90;;;6.68;;
6834;SDS011;3455;42.150;24.734;2023-04-24T08:22:08;7.65;;;6.43;;
6834;SDS011;3455;42.150;24.734;2023-04-24T08:24:34;7.50;;;6.78;;
6834;SDS011;3455;42.150;24.734;2023-04-24T08:27:01;13.45;;;6.82;;
6834;SDS011;3455;42.150;24.734;2023-04-24T08:29:28;13.13;;;6.40;;
6834;SDS011;3455;42.150;24.734;2023-04-24T08:31:56;8.38;;;7.18;;
6834;SDS011;3455;42.150;24.734;2023-04-24T08:34:23;9.25;;;6.75;;
6834;SDS011;3455;42.150;24.734;2023-04-24T08:36:50;6.78;;;6.30;;
6834;SDS011;3455;42.150;24.734;2023-04-24T08:39:17;9.80;;;7.32;;
6834;SDS011;3455;42.150;24.734;2023-04-24T08:41:44;6.95;;;6.43;;
6834;SDS011;3455;42.150;24.734;2023-04-24T08:44:11;7.05;;;6.03;;
6834;SDS011;3455;42.150;24.734;2023-04-24T08:46:40;9.43;;;6.47;;
6834;SDS011;3455;42.150;24.734;2023-04-24T08:49:10;7.10;;;6.50;;
6834;SDS011;3455;42.150;24.734;2023-04-24T08:51:38;7.35;;;6.28;;
6834;SDS011;3455;42.150;24.734;2023-04-24T08:54:05;6.38;;;5.63;;
6834;SDS011;3455;42.150;24.734;2023-04-24T08:56:33;6.53;;;6.03;;
6834;SDS011;3455;42.150;24.734;2023-04-24T08:59:04;7.57;;;7.05;;
6834;SDS011;3455;42.150;24.734;2023-04-24T09:01:32;9.50;;;6.93;;
6834;SDS011;3455;42.150;24.734;2023-04-24T09:04:00;7.53;;;6.93;;
6834;SDS011;3455;42.150;24.734;2023-04-24T09:06:30;7.20;;;6.47;;
6834;SDS011;3455;42.150;24.734;2023-04-24T09:08:57;8.48;;;6.18;;
6834;SDS011;3455;42.150;24.734;2023-04-24T09:11:27;8.38;;;6.63;;
6834;SDS011;3455;42.150;24.734;2023-04-24T09:13:54;7.20;;;6.18;;
6834;SDS011;3455;42.150;24.734;2023-04-24T09:16:21;8.98;;;6.05;;
6834;SDS011;3455;42.150;24.734;2023-04-24T09:18:49;6.95;;;6.45;;
6834;SDS011;3455;42.150;24.734;2023-04-24T09:21:16;7.25;;;6.00;;
6834;SDS011;3455;42.150;24.734;2023-04-24T09:23:44;7.25;;;6.40;;
6834;SDS011;3455;42.150;24.734;2023-04-24T09:26:11;9.63;;;5.57;;
6834;SDS011;3455;42.150;24.734;2023-04-24T09:28:39;8.35;;;6.68;;
6834;SDS011;3455;42.150;24.734;2023-04-24T09:31:07;7.07;;;6.45;;
6834;SDS011;3455;42.150;24.734;2023-04-24T09:33:35;6.47;;;6.10;;
6834;SDS011;3455;42.150;24.734;2023-04-24T09:36:02;7.70;;;6.43;;
6834;SDS011;3455;42.150;24.734;2023-04-24T09:38:31;9.40;;;6.50;;
6834;SDS011;3455;42.150;24.734;2023-04-24T09:41:01;7.95;;;7.30;;
6834;SDS011;3455;42.150;24.734;2023-04-24T09:43:28;6.85;;;6.18;;
6834;SDS011;3455;42.150;24.734;2023-04-24T09:45:56;7.13;;;6.00;;
6834;SDS011;3455;42.150;24.734;2023-04-24T09:48:29;6.68;;;6.10;;
6834;SDS011;3455;42.150;24.734;2023-04-24T09:50:57;6.90;;;6.38;;
6834;SDS011;3455;42.150;24.734;2023-04-24T09:53:24;6.93;;;6.40;;
6834;SDS011;3455;42.150;24.734;2023-04-24T09:55:51;6.72;;;6.25;;
6834;SDS011;3455;42.150;24.734;2023-04-24T09:58:19;6.57;;;6.18;;
6834;SDS011;3455;42.150;24.734;2023-04-24T10:00:53;7.60;;;6.32;;
6834;SDS011;3455;42.150;24.734;2023-04-24T10:03:22;6.50;;;6.00;;
6834;SDS011;3455;42.150;24.734;2023-04-24T10:05:52;6.55;;;6.00;;
6834;SDS011;3455;42.150;24.734;2023-04-24T10:08:20;6.65;;;5.85;;
6834;SDS011;3455;42.150;24.734;2023-04-24T10:10:47;9.63;;;5.78;;
6834;SDS011;3455;42.150;24.734;2023-04-24T10:13:14;7.55;;;6.70;;
6834;SDS011;3455;42.150;24.734;2023-04-24T10:15:42;6.25;;;5.95;;
6834;SDS011;3455;42.150;24.734;2023-04-24T10:18:10;7.10;;;6.15;;
6834;SDS011;3455;42.150;24.734;2023-04-24T10:20:38;6.90;;;6.22;;
6834;SDS011;3455;42.150;24.734;2023-04-24T10:23:06;8.35;;;7.60;;
6834;SDS011;3455;42.150;24.734;2023-04-24T10:25:33;7.88;;;6.47;;
6834;SDS011;3455;42.150;24.734;2023-04-24T10:28:01;12.18;;;7.00;;
6834;SDS011;3455;42.150;24.734;2023-04-24T10:30:30;8.27;;;7.00;;
6834;SDS011;3455;42.150;24.734;2023-04-24T10:33:01;7.70;;;7.05;;
6834;SDS011;3455;42.150;24.734;2023-04-24T10:35:32;7.25;;;6.63;;
6834;SDS011;3455;42.150;24.734;2023-04-24T10:38:05;7.07;;;5.18;;
6834;SDS011;3455;42.150;24.734;2023-04-24T10:40:34;5.72;;;5.25;;
6834;SDS011;3455;42.150;24.734;2023-04-24T10:43:02;7.53;;;6.93;;
6834;SDS011;3455;42.150;24.734;2023-04-24T10:45:31;6.55;;;5.95;;
6834;SDS011;3455;42.150;24.734;2023-04-24T10:47:58;5.78;;;5.28;;
6834;SDS011;3455;42.150;24.734;2023-04-24T10:50:29;10.68;;;5.47;;
6834;SDS011;3455;42.150;24.734;2023-04-24T10:53:13;5.95;;;5.38;;
6834;SDS011;3455;42.150;24.734;2023-04-24T10:55:43;7.88;;;6.07;;
6834;SDS011;3455;42.150;24.734;2023-04-24T10:58:12;4.80;;;4.47;;
6834;SDS011;3455;42.150;24.734;2023-04-24T11:00:40;5.28;;;4.97;;
6834;SDS011;3455;42.150;24.734;2023-04-24T11:03:21;5.03;;;4.68;;
6834;SDS011;3455;42.150;24.734;2023-04-24T11:05:53;5.32;;;5.00;;
6834;SDS011;3455;42.150;24.734;2023-04-24T11:08:24;5.38;;;4.93;;
6834;SDS011;3455;42.150;24.734;2023-04-24T11:10:57;5.45;;;4.95;;
6834;SDS011;3455;42.150;24.734;2023-04-24T11:13:25;5.30;;;5.00;;
6834;SDS011;3455;42.150;24.734;2023-04-24T11:18:41;9.45;;;4.80;;
6834;SDS011;3455;42.150;24.734;2023-04-24T11:21:12;4.65;;;4.28;;
6834;SDS011;3455;42.150;24.734;2023-04-24T11:23:39;5.40;;;4.82;;
6834;SDS011;3455;42.150;24.734;2023-04-24T11:26:10;5.45;;;4.55;;
6834;SDS011;3455;42.150;24.734;2023-04-24T11:28:43;5.88;;;5.35;;
6834;SDS011;3455;42.150;24.734;2023-04-24T11:34:07;6.75;;;5.25;;
6834;SDS011;3455;42.150;24.734;2023-04-24T11:36:37;4.70;;;4.35;;
6834;SDS011;3455;42.150;24.734;2023-04-24T11:39:03;4.32;;;3.80;;
6834;SDS011;3455;42.150;24.734;2023-04-24T11:41:31;4.20;;;3.88;;
6834;SDS011;3455;42.150;24.734;2023-04-24T11:43:58;4.53;;;4.20;;
6834;SDS011;3455;42.150;24.734;2023-04-24T11:46:28;7.97;;;4.53;;
6834;SDS011;3455;42.150;24.734;2023-04-24T11:48:56;4.55;;;3.70;;
6834;SDS011;3455;42.150;24.734;2023-04-24T11:51:24;5.22;;;4.38;;
6834;SDS011;3455;42.150;24.734;2023-04-24T11:53:54;6.10;;;3.90;;
6834;SDS011;3455;42.150;24.734;2023-04-24T11:56:22;6.05;;;3.90;;
6834;SDS011;3455;42.150;24.734;2023-04-24T11:58:51;6.15;;;4.00;;
6834;SDS011;3455;42.150;24.734;2023-04-24T12:01:18;4.45;;;4.05;;
6834;SDS011;3455;42.150;24.734;2023-04-24T12:03:47;6.60;;;4.28;;
6834;SDS011;3455;42.150;24.734;2023-04-24T12:06:16;6.90;;;4.18;;
6834;SDS011;3455;42.150;24.734;2023-04-24T12:08:45;3.70;;;3.40;;
6834;SDS011;3455;42.150;24.734;2023-04-24T12:11:14;4.03;;;3.83;;
6834;SDS011;3455;42.150;24.734;2023-04-24T12:13:43;4.30;;;3.90;;
6834;SDS011;3455;42.150;24.734;2023-04-24T12:16:10;4.28;;;3.97;;
6834;SDS011;3455;42.150;24.734;2023-04-24T12:18:41;4.43;;;4.03;;
6834;SDS011;3455;42.150;24.734;2023-04-24T12:21:15;5.45;;;3.65;;
6834;SDS011;3455;42.150;24.734;2023-04-24T12:23:45;3.67;;;3.47;;
6834;SDS011;3455;42.150;24.734;2023-04-24T12:26:14;3.85;;;3.53;;
6834;SDS011;3455;42.150;24.734;2023-04-24T12:28:43;4.10;;;3.80;;
6834;SDS011;3455;42.150;24.734;2023-04-24T12:31:13;4.25;;;3.95;;
6834;SDS011;3455;42.150;24.734;2023-04-24T12:33:40;4.03;;;3.78;;
6834;SDS011;3455;42.150;24.734;2023-04-24T12:36:09;3.70;;;3.40;;
6834;SDS011;3455;42.150;24.734;2023-04-24T12:38:37;3.88;;;3.55;;
6834;SDS011;3455;42.150;24.734;2023-04-24T12:41:06;4.97;;;3.83;;
6834;SDS011;3455;42.150;24.734;2023-04-24T12:43:36;4.28;;;3.88;;
6834;SDS011;3455;42.150;24.734;2023-04-24T12:46:03;4.32;;;4.07;;
6834;SDS011;3455;42.150;24.734;2023-04-24T12:48:30;6.38;;;3.50;;
6834;SDS011;3455;42.150;24.734;2023-04-24T12:50:57;4.43;;;4.03;;
6834;SDS011;3455;42.150;24.734;2023-04-24T12:53:26;4.38;;;3.63;;
6834;SDS011;3455;42.150;24.734;2023-04-24T12:55:55;4.15;;;3.85;;
6834;SDS011;3455;42.150;24.734;2023-04-24T12:58:22;4.70;;;3.80;;
6834;SDS011;3455;42.150;24.734;2023-04-24T13:00:51;4.90;;;3.72;;
6834;SDS011;3455;42.150;24.734;2023-04-24T13:03:18;3.97;;;3.50;;
6834;SDS011;3455;42.150;24.734;2023-04-24T13:05:45;3.53;;;3.33;;
6834;SDS011;3455;42.150;24.734;2023-04-24T13:08:12;4.75;;;4.35;;
6834;SDS011;3455;42.150;24.734;2023-04-24T13:10:39;4.30;;;3.70;;
6834;SDS011;3455;42.150;24.734;2023-04-24T13:13:06;4.90;;;3.60;;
6834;SDS011;3455;42.150;24.734;2023-04-24T13:15:33;6.55;;;3.65;;
6834;SDS011;3455;42.150;24.734;2023-04-24T13:18:02;4.15;;;3.70;;
6834;SDS011;3455;42.150;24.734;2023-04-24T13:20:29;4.85;;;3.70;;
6834;SDS011;3455;42.150;24.734;2023-04-24T13:22:55;5.22;;;3.75;;
6834;SDS011;3455;42.150;24.734;2023-04-24T13:25:22;6.53;;;3.67;;
6834;SDS011;3455;42.150;24.734;2023-04-24T13:27:50;5.18;;;3.40;;
6834;SDS011;3455;42.150;24.734;2023-04-24T13:30:17;6.20;;;3.90;;
6834;SDS011;3455;42.150;24.734;2023-04-24T13:32:44;3.55;;;3.25;;
6834;SDS011;3455;42.150;24.734;2023-04-24T13:35:12;5.30;;;3.67;;
6834;SDS011;3455;42.150;24.734;2023-04-24T13:37:39;4.05;;;3.72;;
6834;SDS011;3455;42.150;24.734;2023-04-24T13:40:06;4.05;;;3.75;;
6834;SDS011;3455;42.150;24.734;2023-04-24T13:42:34;3.92;;;3.63;;
6834;SDS011;3455;42.150;24.734;2023-04-24T13:45:01;5.10;;;3.80;;
6834;SDS011;3455;42.150;24.734;2023-04-24T13:47:29;4.07;;;3.70;;
6834;SDS011;3455;42.150;24.734;2023-04-24T13:49:56;3.65;;;3.50;;
6834;SDS011;3455;42.150;24.734;2023-04-24T13:52:24;4.55;;;4.05;;
6834;SDS011;3455;42.150;24.734;2023-04-24T13:54:51;3.75;;;3.55;;
6834;SDS011;3455;42.150;24.734;2023-04-24T13:57:18;3.67;;;3.38;;
6834;SDS011;3455;42.150;24.734;2023-04-24T13:59:44;3.97;;;3.63;;
6834;SDS011;3455;42.150;24.734;2023-04-24T14:02:11;4.65;;;4.13;;
6834;SDS011;3455;42.150;24.734;2023-04-24T14:04:38;7.00;;;3.58;;
6834;SDS011;3455;42.150;24.734;2023-04-24T14:07:05;4.25;;;3.60;;
6834;SDS011;3455;42.150;24.734;2023-04-24T14:09:34;3.88;;;3.50;;
6834;SDS011;3455;42.150;24.734;2023-04-24T14:12:01;6.45;;;3.75;;
6834;SDS011;3455;42.150;24.734;2023-04-24T14:14:28;6.13;;;5.20;;
6834;SDS011;3455;42.150;24.734;2023-04-24T14:16:56;6.75;;;4.10;;
6834;SDS011;3455;42.150;24.734;2023-04-24T14:19:23;4.05;;;3.85;;
6834;SDS011;3455;42.150;24.734;2023-04-24T14:21:50;3.78;;;3.50;;
6834;SDS011;3455;42.150;24.734;2023-04-24T14:24:16;4.28;;;3.97;;
6834;SDS011;3455;42.150;24.734;2023-04-24T14:26:45;4.80;;;4.10;;
6834;SDS011;3455;42.150;24.734;2023-04-24T14:29:11;4.07;;;3.83;;
6834;SDS011;3455;42.150;24.734;2023-04-24T14:31:38;3.67;;;3.47;;
6834;SDS011;3455;42.150;24.734;2023-04-24T14:34:05;4.00;;;3.70;;
6834;SDS011;3455;42.150;24.734;2023-04-24T14:36:32;4.22;;;3.70;;
6834;SDS011;3455;42.150;24.734;2023-04-24T14:38:59;4.75;;;3.95;;
6834;SDS011;3455;42.150;24.734;2023-04-24T14:41:28;5.15;;;3.67;;
6834;SDS011;3455;42.150;24.734;2023-04-24T14:43:56;3.83;;;3.53;;
6834;SDS011;3455;42.150;24.734;2023-04-24T14:46:23;4.00;;;3.60;;
6834;SDS011;3455;42.150;24.734;2023-04-24T14:48:50;4.65;;;3.92;;
6834;SDS011;3455;42.150;24.734;2023-04-24T14:51:16;3.42;;;3.22;;
6834;SDS011;3455;42.150;24.734;2023-04-24T14:53:43;4.10;;;3.90;;
6834;SDS011;3455;42.150;24.734;2023-04-24T14:56:11;4.38;;;4.07;;
6834;SDS011;3455;42.150;24.734;2023-04-24T14:58:38;5.55;;;3.83;;
6834;SDS011;3455;42.150;24.734;2023-04-24T15:01:06;3.45;;;3.17;;
6834;SDS011;3455;42.150;24.734;2023-04-24T15:03:33;6.03;;;3.35;;